createdAt,value
2019-04-16T00:02:39.909Z,53.60
2019-04-16T00:05:22.205Z,53.70
2019-04-16T00:08:01.746Z,53.50
2019-04-16T00:10:46.119Z,53.80
2019-04-16T00:13:20.287Z,53.40
2019-04-16T00:15:52.224Z,53.60
2019-04-16T00:18:22.627Z,53.70
2019-04-16T00:21:10.744Z,53.60
2019-04-16T00:24:03.818Z,53.70
2019-04-16T00:26:34.199Z,53.50
2019-04-16T00:29:04.868Z,53.60
2019-04-16T00:31:37.080Z,53.70
2019-04-16T00:34:08.289Z,53.80
2019-04-16T00:36:38.655Z,53.90
2019-04-16T00:39:08.969Z,53.80
2019-04-16T00:41:39.396Z,54.10
2019-04-16T00:44:09.713Z,54.00
2019-04-16T00:46:40.077Z,54.20
2019-04-16T00:49:10.365Z,54.60
2019-04-16T00:51:40.733Z,55.30
2019-04-16T00:54:11.367Z,54.90
2019-04-16T00:56:43.584Z,55.00
2019-04-16T00:59:13.814Z,55.10
2019-04-16T01:01:44.235Z,55.30
2019-04-16T01:04:14.643Z,55.50
2019-04-16T01:06:45.039Z,55.70
2019-04-16T01:09:18.516Z,55.50
2019-04-16T01:11:49.644Z,55.90
2019-04-16T01:14:21.222Z,55.80
2019-04-16T01:16:51.919Z,55.80
2019-04-16T01:19:22.233Z,55.90
2019-04-16T01:21:52.581Z,56.10
2019-04-16T01:24:22.937Z,56.10
2019-04-16T01:26:55.350Z,56.10
2019-04-16T01:29:25.621Z,56.20
2019-04-16T01:32:30.802Z,56.10
2019-04-16T01:35:22.907Z,56.10
2019-04-16T01:38:11.226Z,56.20
2019-04-16T01:41:04.045Z,56.30
2019-04-16T01:43:34.295Z,56.30
2019-04-16T01:46:04.678Z,56.50
2019-04-16T01:48:38.636Z,56.50
2019-04-16T01:51:07.027Z,56.60
2019-04-16T01:53:37.333Z,56.70
2019-04-16T01:56:07.673Z,56.90
2019-04-16T01:58:37.965Z,57.10
2019-04-16T02:01:11.405Z,57.20
2019-04-16T02:03:41.622Z,57.50
2019-04-16T02:06:11.955Z,57.50
2019-04-16T02:08:42.576Z,57.60
2019-04-16T02:11:13.350Z,57.80
2019-04-16T02:13:46.185Z,58.10
2019-04-16T02:16:16.785Z,58.30
2019-04-16T02:18:47.145Z,58.20
2019-04-16T02:21:17.705Z,58.20
2019-04-16T02:23:48.716Z,58.20
2019-04-16T02:26:20.549Z,58.40
2019-04-16T02:28:51.099Z,58.50
2019-04-16T02:31:21.392Z,58.80
2019-04-16T02:33:52.661Z,58.70
2019-04-16T02:36:22.979Z,58.80
2019-04-16T02:38:53.815Z,59.10
2019-04-16T02:41:24.707Z,59.20
2019-04-16T02:43:55.285Z,59.20
2019-04-16T02:46:30.621Z,59.40
2019-04-16T02:48:57.937Z,59.50
2019-04-16T02:51:43.039Z,59.60
2019-04-16T02:54:35.075Z,59.80
2019-04-16T02:57:26.746Z,60.00
2019-04-16T02:59:57.414Z,59.90
2019-04-16T03:02:37.589Z,60.20
2019-04-16T03:05:31.077Z,60.40
2019-04-16T03:08:04.631Z,60.60
2019-04-16T03:10:33.828Z,60.70
2019-04-16T03:13:04.193Z,61.20
2019-04-16T03:15:52.605Z,61.70
2019-04-16T03:18:27.565Z,62.70
2019-04-16T03:20:57.873Z,62.60
2019-04-16T03:23:28.223Z,62.30
2019-04-16T03:25:58.546Z,62.70
2019-04-16T03:28:28.881Z,63.10
2019-04-16T03:30:59.183Z,62.80
2019-04-16T03:33:29.544Z,63.10
2019-04-16T03:36:00.969Z,63.70
2019-04-16T03:38:36.750Z,63.90
2019-04-16T03:41:04.760Z,63.90
2019-04-16T03:43:35.051Z,64.20
2019-04-16T03:46:05.474Z,64.30
2019-04-16T03:48:36.389Z,64.50
2019-04-16T03:51:06.717Z,65.00
2019-04-16T03:53:37.021Z,65.20
2019-04-16T03:56:07.375Z,65.20
2019-04-16T03:58:38.551Z,65.20
2019-04-16T04:01:10.670Z,65.00
2019-04-16T04:03:41.319Z,65.50
2019-04-16T04:06:12.563Z,66.20
2019-04-16T04:08:48.006Z,66.20
2019-04-16T04:11:15.695Z,66.70
2019-04-16T04:13:49.758Z,66.80
2019-04-16T04:16:17.996Z,66.80
2019-04-16T04:18:48.378Z,66.80
2019-04-16T04:21:22.097Z,67.00
2019-04-16T04:23:50.646Z,68.20
2019-04-16T04:26:20.936Z,67.40
2019-04-16T04:28:51.594Z,67.40
2019-04-16T04:31:22.930Z,68.10
2019-04-16T04:33:53.319Z,68.00
2019-04-16T04:36:26.860Z,68.00
2019-04-16T04:38:55.786Z,68.30
2019-04-16T04:41:26.107Z,67.60
2019-04-16T04:43:56.693Z,67.40
2019-04-16T04:46:27.033Z,67.20
2019-04-16T04:49:00.226Z,66.80
2019-04-16T04:51:29.317Z,66.40
2019-04-16T04:53:59.664Z,65.90
2019-04-16T04:56:30.001Z,65.40
2019-04-16T04:59:02.535Z,64.60
2019-04-16T05:01:32.305Z,63.50
2019-04-16T05:04:24.711Z,61.80
2019-04-16T05:06:59.376Z,61.40
2019-04-16T05:09:32.674Z,61.50
2019-04-16T05:12:01.648Z,61.70
2019-04-16T05:14:31.927Z,62.10
2019-04-16T05:17:03.584Z,62.30
2019-04-16T05:19:36.225Z,62.50
2019-04-16T05:22:06.602Z,62.50
2019-04-16T05:24:37.671Z,62.50
2019-04-16T05:27:09.280Z,62.20
2019-04-16T05:29:39.892Z,62.00
2019-04-16T05:32:10.178Z,61.70
2019-04-16T05:34:40.539Z,61.70
2019-04-16T05:37:12.888Z,61.40
2019-04-16T05:39:43.176Z,62.30
2019-04-16T05:42:13.599Z,61.20
2019-04-16T05:44:43.989Z,60.70
2019-04-16T05:47:17.165Z,60.80
2019-04-16T05:49:46.296Z,61.00
2019-04-16T05:52:16.701Z,60.90
2019-04-16T05:55:06.030Z,61.00
2019-04-16T05:57:38.162Z,61.00
2019-04-16T06:00:15.035Z,61.10
2019-04-16T06:02:49.740Z,60.90
2019-04-16T06:05:17.421Z,60.80
2019-04-16T06:07:49.088Z,60.70
2019-04-16T06:10:19.656Z,60.50
2019-04-16T06:13:12.608Z,60.40
2019-04-16T06:15:56.749Z,60.00
2019-04-16T06:19:01.159Z,59.50
2019-04-16T06:21:50.453Z,59.40
2019-04-16T06:24:35.859Z,59.20
2019-04-16T06:27:11.597Z,59.20
2019-04-16T06:30:16.366Z,58.60
2019-04-16T06:32:58.447Z,58.30
2019-04-16T06:35:46.948Z,57.40
2019-04-16T06:38:20.508Z,57.50
2019-04-16T06:41:11.864Z,57.40
2019-04-16T06:43:44.950Z,57.30
2019-04-16T06:46:32.777Z,57.00
2019-04-16T06:49:14.367Z,56.80
2019-04-16T06:52:03.546Z,56.30
2019-04-16T06:54:51.527Z,56.10
2019-04-16T06:57:40.366Z,55.70
2019-04-16T07:00:33.879Z,54.80
2019-04-16T07:03:34.927Z,54.20
2019-04-16T07:06:36.228Z,53.90
2019-04-16T07:09:26.425Z,53.40
2019-04-16T07:12:00.297Z,53.30
2019-04-16T07:14:30.605Z,52.00
2019-04-16T07:17:00.968Z,48.90
2019-04-16T07:19:31.317Z,48.10
2019-04-16T07:22:01.689Z,46.50
2019-04-16T07:24:36.072Z,45.70
2019-04-16T07:27:04.097Z,44.80
2019-04-16T07:29:38.550Z,42.90
2019-04-16T07:32:31.993Z,42.10
2019-04-16T07:35:36.567Z,41.90
2019-04-16T07:38:21.673Z,40.50
2019-04-16T07:41:12.170Z,38.00
2019-04-16T07:44:06.325Z,35.40
2019-04-16T07:46:52.699Z,34.20
2019-04-16T07:49:33.896Z,31.70
2019-04-16T07:52:29.022Z,30.30
2019-04-16T07:55:12.159Z,29.80
2019-04-16T07:57:42.483Z,28.00
2019-04-16T08:00:13.947Z,26.00
2019-04-16T08:02:44.261Z,25.70
2019-04-16T08:05:14.605Z,25.20
2019-04-16T08:07:44.941Z,24.80
2019-04-16T08:10:17.046Z,23.60
2019-04-16T08:13:00.582Z,23.60
2019-04-16T08:15:29.909Z,23.20
2019-04-16T08:18:00.317Z,22.40
2019-04-16T08:20:31.037Z,21.90
2019-04-16T08:23:04.134Z,21.40
2019-04-16T08:25:34.987Z,22.10
2019-04-16T08:28:07.441Z,21.60
2019-04-16T08:31:00.587Z,22.10
2019-04-16T08:33:32.219Z,21.50
2019-04-16T08:36:02.710Z,21.60
2019-04-16T08:38:34.877Z,20.70
2019-04-16T08:41:05.498Z,21.10
2019-04-16T08:43:35.862Z,20.80
2019-04-16T08:46:09.974Z,20.60
2019-04-16T09:07:51.853Z,18.90
2019-04-16T09:22:31.719Z,18.40
2019-04-16T09:25:20.964Z,18.20
2019-04-16T09:30:55.714Z,18.40
2019-04-16T09:33:35.769Z,18.10
2019-04-16T09:42:16.489Z,18.30
2019-04-16T09:44:46.856Z,18.50
2019-04-16T09:47:17.392Z,18.50
2019-04-16T09:49:48.310Z,18.40
2019-04-16T09:52:37.722Z,18.10
2019-04-16T09:55:08.583Z,18.10
2019-04-16T09:57:38.925Z,18.20
2019-04-16T10:00:12.938Z,18.50
2019-04-16T10:02:46.351Z,18.90
2019-04-16T10:05:17.362Z,19.70
2019-04-16T10:07:47.795Z,20.00
2019-04-16T10:10:18.117Z,20.30
2019-04-16T10:12:48.550Z,20.30
2019-04-16T10:15:18.868Z,20.60
2019-04-16T10:17:49.221Z,20.70
2019-04-16T10:20:20.794Z,20.90
2019-04-16T10:22:51.057Z,21.40
2019-04-16T10:25:21.463Z,21.50
2019-04-16T10:27:54.153Z,21.80
2019-04-16T10:30:30.202Z,22.30
2019-04-16T10:33:00.482Z,22.70
2019-04-16T10:35:30.918Z,22.10
2019-04-16T10:41:03.411Z,21.90
2019-04-16T10:44:04.497Z,22.00
2019-04-16T10:46:56.798Z,22.40
2019-04-16T10:49:49.242Z,22.20
2019-04-16T10:52:38.472Z,22.40
2019-04-16T10:55:39.848Z,22.60
2019-04-16T10:58:44.385Z,23.30
2019-04-16T11:01:44.137Z,23.00
2019-04-16T11:04:19.334Z,23.70
2019-04-16T11:06:50.724Z,24.00
2019-04-16T11:09:20.993Z,24.60
2019-04-16T11:11:51.336Z,24.70
2019-04-16T11:14:21.667Z,24.80
2019-04-16T11:16:52.408Z,24.90
2019-04-16T11:19:22.798Z,24.70
2019-04-16T11:21:53.488Z,24.50
2019-04-16T11:24:24.784Z,24.60
2019-04-16T11:26:55.092Z,24.90
2019-04-16T11:29:25.481Z,25.10
2019-04-16T11:31:55.765Z,25.30
2019-04-16T11:34:31.250Z,25.80
2019-04-16T11:37:07.452Z,26.00
2019-04-16T11:39:34.785Z,26.10
2019-04-16T11:42:05.339Z,26.70
2019-04-16T11:44:35.697Z,26.80
2019-04-16T11:47:06.710Z,26.70
2019-04-16T11:49:37.173Z,27.50
2019-04-16T11:52:07.611Z,26.50
2019-04-16T11:54:39.162Z,26.80
2019-04-16T11:57:12.919Z,27.20
2019-04-16T11:59:41.436Z,27.20
2019-04-16T12:02:25.982Z,27.80
2019-04-16T12:05:21.069Z,28.30
2019-04-16T12:08:28.881Z,29.30
2019-04-16T12:11:24.683Z,29.30
2019-04-16T12:14:10.263Z,29.90
2019-04-16T12:16:47.523Z,30.40
2019-04-16T12:19:48.770Z,30.90
2019-04-16T12:22:23.734Z,31.50
2019-04-16T12:25:08.320Z,32.10
2019-04-16T12:28:05.744Z,32.50
2019-04-16T12:30:51.179Z,32.90
2019-04-16T12:33:49.535Z,33.50
2019-04-16T12:36:38.330Z,33.90
2019-04-16T12:39:43.018Z,34.70
2019-04-16T12:42:23.395Z,34.80
2019-04-16T12:45:00.459Z,35.00
2019-04-16T12:47:59.117Z,35.10
2019-04-16T12:50:36.823Z,35.40
2019-04-16T12:53:15.309Z,35.80
2019-04-16T12:56:07.398Z,35.90
2019-04-16T12:59:12.582Z,36.20
2019-04-16T13:02:14.285Z,36.60
2019-04-16T13:04:54.555Z,36.90
2019-04-16T13:07:38.884Z,37.40
2019-04-16T13:10:17.226Z,37.60
2019-04-16T13:13:12.558Z,37.90
2019-04-16T13:15:57.108Z,38.00
2019-04-16T13:18:53.478Z,38.50
2019-04-16T13:21:27.145Z,38.90
2019-04-16T13:24:19.229Z,40.20
2019-04-16T13:26:58.897Z,40.90
2019-04-16T13:29:31.185Z,41.30
2019-04-16T13:32:01.901Z,41.70
2019-04-16T13:34:32.409Z,42.00
2019-04-16T13:37:05.228Z,42.80
2019-04-16T13:39:54.795Z,44.70
2019-04-16T13:42:25.162Z,46.90
2019-04-16T13:45:15.290Z,47.80
2019-04-16T13:47:34.846Z,49.60
2019-04-16T13:50:17.286Z,50.30
2019-04-16T13:52:51.891Z,51.50
2019-04-16T13:55:28.922Z,52.80
2019-04-16T13:58:13.625Z,55.30
2019-04-16T14:00:51.091Z,56.60
2019-04-16T14:03:23.950Z,57.00
2019-04-16T14:05:53.477Z,59.00
2019-04-16T14:08:23.888Z,59.50
2019-04-16T14:10:54.205Z,61.20
2019-04-16T14:13:24.626Z,62.40
2019-04-16T14:15:55.005Z,63.90
2019-04-16T14:18:25.471Z,65.90
2019-04-16T14:20:55.848Z,67.10
2019-04-16T14:23:26.259Z,66.50
2019-04-16T14:25:56.618Z,68.20
2019-04-16T14:28:28.060Z,69.60
2019-04-16T14:30:58.435Z,72.00
2019-04-16T14:33:40.283Z,73.10
2019-04-16T14:36:09.808Z,74.30
2019-04-16T14:38:45.269Z,76.80
2019-04-16T14:41:16.362Z,78.60
2019-04-16T14:43:49.999Z,79.30
2019-04-16T14:46:20.358Z,80.80
2019-04-16T14:48:51.757Z,81.70
2019-04-16T14:51:22.147Z,81.30
2019-04-16T14:53:59.425Z,81.90
2019-04-16T14:56:38.230Z,83.70
2019-04-16T14:59:26.644Z,84.70
2019-04-16T15:01:54.117Z,85.30
2019-04-16T15:04:43.951Z,85.90
2019-04-16T15:07:27.863Z,86.00
2019-04-16T15:10:35.761Z,86.80
2019-04-16T15:13:25.043Z,87.60
2019-04-16T15:16:14.439Z,87.90
2019-04-16T15:19:03.904Z,88.30
2019-04-16T15:21:51.870Z,89.00
2019-04-16T15:24:45.292Z,89.00
2019-04-16T15:27:31.866Z,90.10
2019-04-16T15:30:31.564Z,90.40
2019-04-16T15:33:27.162Z,90.40
2019-04-16T15:36:01.065Z,90.10
2019-04-16T15:38:35.643Z,90.30
2019-04-16T15:41:23.628Z,90.00
2019-04-16T15:44:22.586Z,89.60
2019-04-16T15:47:13.258Z,90.10
2019-04-16T15:49:49.397Z,90.30
2019-04-16T15:52:35.435Z,90.70
2019-04-16T15:55:24.914Z,90.30
2019-04-16T15:58:23.521Z,90.20
2019-04-16T16:01:13.122Z,89.90
2019-04-16T16:04:02.471Z,89.90
2019-04-16T16:06:33.132Z,90.10
2019-04-16T16:09:10.980Z,90.20
2019-04-16T16:12:22.041Z,89.10
2019-04-16T16:14:51.353Z,89.20
2019-04-16T16:17:22.586Z,89.90
2019-04-16T16:19:53.843Z,90.10
2019-04-16T16:22:24.253Z,90.10
2019-04-16T16:24:54.634Z,90.00
2019-04-16T16:27:26.003Z,89.80
2019-04-16T16:29:56.378Z,90.00
2019-04-16T16:32:26.715Z,90.10
2019-04-16T16:34:58.958Z,90.10
2019-04-16T16:37:29.340Z,90.20
2019-04-16T16:39:59.727Z,90.40
2019-04-16T16:42:30.439Z,90.40
2019-04-16T16:45:01.970Z,90.30
2019-04-16T16:47:40.521Z,90.60
2019-04-16T16:50:15.302Z,90.90
2019-04-16T16:52:55.096Z,91.20
2019-04-16T16:55:32.673Z,91.50
2019-04-16T16:58:22.327Z,91.30
2019-04-16T17:01:02.299Z,91.20
2019-04-16T17:03:57.617Z,91.40
2019-04-16T17:06:28.577Z,91.30
2019-04-16T17:08:59.273Z,91.30
2019-04-16T17:11:29.649Z,91.80
2019-04-16T17:14:01.671Z,91.80
2019-04-16T17:16:32.063Z,91.60
2019-04-16T17:19:02.591Z,91.70
2019-04-16T17:21:34.155Z,91.80
2019-04-16T17:24:04.851Z,92.00
2019-04-16T17:26:35.553Z,91.90
2019-04-16T17:29:05.975Z,91.70
2019-04-16T17:31:36.449Z,92.00
2019-04-16T17:34:07.817Z,92.30
2019-04-16T17:36:39.631Z,92.50
2019-04-16T17:39:10.826Z,92.50
2019-04-16T17:41:48.475Z,92.80
2019-04-16T17:44:41.703Z,93.20
2019-04-16T17:47:31.926Z,93.40
2019-04-16T17:50:04.220Z,93.60
2019-04-16T17:52:44.968Z,93.80
2019-04-16T17:55:24.471Z,94.10
2019-04-16T17:58:01.393Z,94.00
2019-04-16T18:00:49.626Z,94.20
2019-04-16T18:03:45.528Z,94.30
2019-04-16T18:06:35.616Z,94.20
2019-04-16T18:09:30.043Z,94.30
2019-04-16T18:12:28.442Z,94.40
2019-04-16T18:15:09.442Z,94.40
2019-04-16T18:17:48.068Z,94.60
2019-04-16T18:20:28.310Z,94.30
2019-04-16T18:23:13.583Z,94.20
2019-04-16T18:26:02.956Z,94.70
2019-04-16T18:28:40.451Z,94.90
2019-04-16T18:31:25.330Z,95.10
2019-04-16T18:34:00.920Z,95.10
2019-04-16T18:36:53.338Z,94.90
2019-04-16T18:39:37.527Z,94.80
2019-04-16T18:42:21.226Z,94.50
2019-04-16T18:45:14.258Z,94.40
2019-04-16T18:48:02.947Z,94.20
2019-04-16T18:50:29.127Z,94.20
2019-04-16T18:52:59.646Z,94.20
2019-04-16T18:55:30.402Z,94.00
2019-04-16T18:58:01.909Z,94.10
2019-04-16T19:00:50.051Z,94.20
2019-04-16T19:03:20.541Z,94.40
2019-04-16T19:05:51.358Z,94.60
2019-04-16T19:08:21.803Z,94.60
2019-04-16T19:10:52.792Z,94.30
2019-04-16T19:13:23.917Z,94.00
2019-04-16T19:15:54.299Z,94.00
2019-04-16T19:18:24.676Z,94.10
2019-04-16T19:20:55.322Z,94.20
2019-04-16T19:23:25.791Z,93.90
2019-04-16T19:25:56.846Z,93.90
2019-04-16T19:28:27.351Z,93.80
2019-04-16T19:30:58.155Z,93.60
2019-04-16T19:33:33.402Z,93.70
2019-04-16T19:36:00.525Z,94.00
2019-04-16T19:38:32.509Z,94.10
2019-04-16T19:41:03.089Z,94.30
2019-04-16T19:43:35.333Z,94.40
2019-04-16T19:46:06.538Z,94.40
2019-04-16T19:48:37.325Z,94.40
2019-04-16T19:51:08.935Z,94.40
2019-04-16T19:53:40.475Z,94.30
2019-04-16T19:56:10.855Z,94.00
2019-04-16T19:58:44.218Z,94.10
2019-04-16T20:01:14.135Z,93.90
2019-04-16T20:03:44.944Z,93.70
2019-04-16T20:06:16.219Z,93.50
2019-04-16T20:08:47.867Z,93.20
2019-04-16T20:11:21.401Z,92.80
2019-04-16T20:13:50.283Z,92.70
2019-04-16T20:16:21.615Z,92.70
2019-04-16T20:18:51.986Z,92.60
2019-04-16T20:21:22.668Z,92.40
2019-04-16T20:23:53.188Z,92.20
2019-04-16T20:26:23.827Z,92.00
2019-04-16T20:28:54.559Z,92.40
2019-04-16T20:31:24.909Z,91.90
2019-04-16T20:33:55.430Z,91.60
2019-04-16T20:36:25.836Z,91.50
2019-04-16T20:38:56.967Z,91.40
2019-04-16T20:41:27.712Z,91.40
2019-04-16T20:43:58.062Z,91.60
2019-04-16T20:46:28.497Z,91.60
2019-04-16T20:49:08.128Z,91.70
2019-04-16T20:51:30.932Z,91.10
2019-04-16T20:54:01.270Z,91.10
2019-04-16T20:56:31.623Z,91.10
2019-04-16T20:59:04.044Z,91.10
2019-04-16T21:01:37.682Z,90.90
2019-04-16T21:04:06.865Z,90.70
2019-04-16T21:06:41.919Z,90.70
2019-04-16T21:09:12.066Z,90.70
2019-04-16T21:11:42.449Z,90.60
2019-04-16T21:14:12.907Z,90.40
2019-04-16T21:16:43.312Z,90.50
2019-04-16T21:19:23.012Z,90.50
2019-04-16T21:21:46.029Z,90.40
2019-04-16T21:24:16.359Z,90.30
2019-04-16T21:26:50.986Z,90.10
2019-04-16T21:29:33.342Z,90.00
2019-04-16T21:32:03.208Z,90.00
2019-04-16T21:34:52.470Z,89.70
2019-04-16T21:37:40.477Z,88.50
2019-04-16T21:40:12.862Z,88.20
2019-04-16T21:42:43.226Z,88.80
2019-04-16T21:45:16.321Z,87.40
2019-04-16T21:47:45.684Z,87.20
2019-04-16T21:50:16.957Z,86.40
2019-04-16T21:52:47.432Z,85.90
2019-04-16T21:55:17.830Z,85.60
2019-04-16T21:57:48.172Z,85.20
2019-04-16T22:00:59.756Z,85.10
2019-04-16T22:03:30.399Z,85.10
2019-04-16T22:06:00.778Z,84.70
2019-04-16T22:08:31.386Z,84.50
2019-04-16T22:11:03.169Z,84.60
2019-04-16T22:13:33.766Z,84.30
2019-04-16T22:16:04.098Z,84.40
2019-04-16T22:18:34.421Z,84.20
2019-04-16T22:21:09.835Z,84.10
2019-04-16T22:23:37.711Z,84.10
2019-04-16T22:26:11.013Z,84.40
2019-04-16T22:28:44.223Z,84.30
2019-04-16T22:31:13.483Z,84.20
2019-04-16T22:33:43.826Z,84.40
2019-04-16T22:36:14.722Z,84.20
2019-04-16T22:38:47.748Z,84.20
2019-04-16T22:41:27.591Z,84.20
2019-04-16T22:44:14.509Z,84.00
2019-04-16T22:46:51.119Z,84.40
2019-04-16T22:49:22.473Z,84.20
2019-04-16T22:51:53.655Z,84.20
2019-04-16T22:54:23.964Z,84.40
2019-04-16T22:57:03.503Z,83.90
2019-04-16T22:59:39.067Z,83.80
2019-04-16T23:02:16.338Z,83.50
2019-04-16T23:04:45.730Z,83.40
2019-04-16T23:07:16.081Z,83.20
2019-04-16T23:09:48.731Z,83.00
2019-04-16T23:12:19.104Z,82.80
2019-04-16T23:14:49.504Z,82.80
2019-04-16T23:17:21.841Z,82.40
2019-04-16T23:19:54.668Z,82.60
2019-04-16T23:22:24.168Z,82.30
2019-04-16T23:24:55.333Z,82.50
2019-04-16T23:27:26.649Z,82.50
2019-04-16T23:29:56.987Z,82.50
2019-04-16T23:32:28.646Z,82.20
2019-04-16T23:34:59.304Z,82.00
2019-04-16T23:37:29.707Z,82.00
2019-04-16T23:40:00.794Z,82.00
2019-04-16T23:42:31.477Z,82.50
2019-04-16T23:45:36.237Z,82.60
2019-04-16T23:48:15.781Z,82.20
2019-04-16T23:51:00.299Z,81.70
2019-04-16T23:53:55.627Z,81.80
2019-04-16T23:56:44.930Z,82.00
2019-04-16T23:59:35.628Z,82.00
